Time;durP1;ratioP1;P1;durP2;ratioP2;P2;SDS_P1;SDS_P2;PMS_P1;PMS_P2;Temp;Humidity;BMP_temperature;BMP_pressure;BME280_temperature;BME280_humidity;BME280_pressure;Samples;Min_cycle;Max_cycle;Signal;HPM_P1;HPM_P2
2021/08/22 00:01:31;;;;;;;18.05;9.13;;;589.70;1561.60;;;;;;5093601;28;20020;-72
2021/08/22 00:03:57;;;;;;;11.52;8.40;;;589.60;1561.60;;;;;;5094659;28;20081;-72
2021/08/22 00:06:23;;;;;;;14.85;8.77;;;589.60;1561.60;;;;;;5094647;28;20568;-72
2021/08/22 00:08:49;;;;;;;19.35;8.50;;;589.60;1561.60;;;;;;5094503;28;20074;-74
2021/08/22 00:11:15;;;;;;;12.02;8.88;;;589.70;1561.60;;;;;;5094752;28;20370;-73
2021/08/22 00:13:41;;;;;;;16.60;9.63;;;589.60;1561.60;;;;;;5094441;28;20103;-74
2021/08/22 00:16:07;;;;;;;17.20;9.10;;;589.60;1536.00;;;;;;5095014;28;20099;-73
2021/08/22 00:18:33;;;;;;;14.05;8.85;;;589.60;1561.60;;;;;;5094572;28;20528;-74
2021/08/22 00:20:59;;;;;;;19.80;9.55;;;589.60;1561.60;;;;;;5093215;28;20392;-74
2021/08/22 00:23:25;;;;;;;13.82;9.68;;;589.50;1561.60;;;;;;5094734;28;20423;-73
2021/08/22 00:25:51;;;;;;;25.98;11.35;;;589.50;1561.60;;;;;;5094469;28;20024;-73
2021/08/22 00:28:17;;;;;;;17.35;10.20;;;589.40;1587.20;;;;;;5094308;28;20028;-73
2021/08/22 00:30:43;;;;;;;13.38;9.02;;;589.50;1587.20;;;;;;5094710;28;20028;-74
2021/08/22 00:33:09;;;;;;;18.85;8.88;;;589.40;1587.20;;;;;;5093069;28;20035;-74
2021/08/22 00:35:35;;;;;;;28.23;8.95;;;589.40;1587.20;;;;;;5094376;28;20027;-73
2021/08/22 00:38:01;;;;;;;14.20;7.88;;;589.40;1587.20;;;;;;5094269;28;20024;-73
2021/08/22 00:40:26;;;;;;;17.75;9.52;;;589.40;1587.20;;;;;;5094137;28;20407;-73
2021/08/22 00:42:53;;;;;;;17.20;9.07;;;589.40;1587.20;;;;;;5094036;28;20032;-73
2021/08/22 00:45:18;;;;;;;13.98;7.72;;;589.30;1587.20;;;;;;5093711;28;20016;-74
2021/08/22 00:47:46;;;;;;;11.70;7.60;;;589.20;1587.20;;;;;;5093443;28;20034;-73
2021/08/22 00:50:18;;;;;;;10.48;6.85;;;589.20;1561.60;;;;;;5093999;28;20021;-73
2021/08/22 00:52:44;;;;;;;13.20;6.97;;;589.20;1561.60;;;;;;5093889;28;20043;-74
2021/08/22 00:55:10;;;;;;;13.52;5.95;;;589.10;1561.60;;;;;;5093832;28;20507;-72
2021/08/22 00:57:37;;;;;;;15.93;7.07;;;589.10;1561.60;;;;;;5093776;28;20024;-73
2021/08/22 01:00:10;;;;;;;11.43;6.65;;;589.10;1561.60;;;;;;5093897;28;20031;-73
2021/08/22 01:02:49;;;;;;;11.05;6.22;;;589.10;1561.60;;;;;;5093937;28;20016;-74
2021/08/22 01:05:38;;;;;;;11.32;6.43;;;589.00;1561.60;;;;;;5093849;28;20077;-74
2021/08/22 01:08:24;;;;;;;9.25;6.45;;;589.10;1561.60;;;;;;5082968;28;20110;-73
2021/08/22 01:10:54;;;;;;;13.43;7.05;;;589.10;1561.60;;;;;;5092517;28;20032;-73
2021/08/22 01:13:22;;;;;;;13.40;6.95;;;589.00;1561.60;;;;;;5093918;28;20021;-75
2021/08/22 01:15:55;;;;;;;14.73;7.55;;;589.00;1561.60;;;;;;5093566;28;20105;-74
2021/08/22 01:18:24;;;;;;;11.70;6.72;;;588.90;1587.20;;;;;;5093746;28;20032;-74
2021/08/22 01:21:15;;;;;;;18.25;6.57;;;588.90;1587.20;;;;;;5093585;28;20020;-73
2021/08/22 01:23:54;;;;;;;13.15;6.45;;;588.90;1587.20;;;;;;5093882;28;20073;-72
2021/08/22 01:26:27;;;;;;;16.60;6.28;;;588.80;1638.40;;;;;;5093627;28;20016;-73
2021/08/22 01:28:53;;;;;;;15.98;6.65;;;588.80;1638.40;;;;;;5093804;28;20032;-73
2021/08/22 01:31:24;;;;;;;11.95;6.35;;;588.80;1612.80;;;;;;5093588;28;20035;-73
2021/08/22 01:33:53;;;;;;;9.98;6.57;;;588.80;1612.80;;;;;;5092233;28;20016;-73
2021/08/22 01:36:22;;;;;;;13.27;7.55;;;564.10;1638.40;;;;;;5093808;28;20385;-73
2021/08/22 01:38:49;;;;;;;16.90;6.97;;;564.10;1638.40;;;;;;5092178;28;20430;-73
2021/08/22 01:41:17;;;;;;;13.30;6.72;;;564.10;1638.40;;;;;;5093380;28;20031;-74
2021/08/22 01:43:47;;;;;;;11.00;7.13;;;564.00;1664.00;;;;;;5093278;28;20047;-73
2021/08/22 01:46:14;;;;;;;11.88;6.60;;;564.00;1638.40;;;;;;5093548;28;20099;-74
2021/08/22 01:48:40;;;;;;;14.25;7.05;;;564.00;1638.40;;;;;;5093277;28;20040;-73
2021/08/22 01:51:07;;;;;;;15.05;5.65;;;564.00;1612.80;;;;;;5093285;28;20048;-74
2021/08/22 01:53:34;;;;;;;13.00;7.43;;;564.00;1612.80;;;;;;5093367;28;20514;-75
2021/08/22 01:56:00;;;;;;;12.48;7.10;;;563.90;1638.40;;;;;;5093285;28;20091;-73
2021/08/22 01:58:27;;;;;;;11.55;6.68;;;564.00;1612.80;;;;;;5095869;28;20069;-74
2021/08/22 02:00:54;;;;;;;13.40;6.68;;;563.90;1638.40;;;;;;5095818;28;20073;-74
2021/08/22 02:03:44;;;;;;;11.88;6.90;;;563.90;1638.40;;;;;;5097399;28;20028;-73
2021/08/22 02:06:30;;;;;;;13.02;6.25;;;563.90;1612.80;;;;;;5097276;28;20497;-73
2021/08/22 02:09:01;;;;;;;10.43;6.47;;;563.90;1612.80;;;;;;5097186;28;20091;-73
2021/08/22 02:11:38;;;;;;;11.07;5.90;;;563.90;1612.80;;;;;;5097395;28;20534;-76
2021/08/22 02:14:07;;;;;;;12.43;6.55;;;563.70;1612.80;;;;;;5096751;28;20405;-73
2021/08/22 02:16:35;;;;;;;15.43;6.65;;;563.70;1638.40;;;;;;5096986;28;20361;-73
2021/08/22 02:19:01;;;;;;;7.93;5.55;;;563.60;1638.40;;;;;;5096910;28;20555;-73
2021/08/22 02:21:28;;;;;;;15.85;6.18;;;563.60;1638.40;;;;;;5096809;28;20045;-73
2021/08/22 02:23:57;;;;;;;12.43;5.93;;;563.50;1664.00;;;;;;5096915;28;20024;-73
2021/08/22 02:26:23;;;;;;;12.07;6.45;;;563.40;1664.00;;;;;;5096790;28;20021;-74
2021/08/22 02:28:58;;;;;;;14.15;6.40;;;563.40;1638.40;;;;;;5095426;28;20036;-74
2021/08/22 02:31:27;;;;;;;12.25;6.60;;;563.50;1638.40;;;;;;5097305;28;20051;-73
2021/08/22 02:33:54;;;;;;;11.55;7.32;;;563.50;1638.40;;;;;;5095401;28;20030;-73
2021/08/22 02:36:20;;;;;;;13.68;6.90;;;563.50;1638.40;;;;;;5096615;28;20372;-74
2021/08/22 02:38:46;;;;;;;8.93;6.35;;;563.50;1638.40;;;;;;5096578;28;20103;-73
2021/08/22 02:41:13;;;;;;;12.75;7.10;;;563.50;1638.40;;;;;;5096343;28;20109;-73
2021/08/22 02:43:39;;;;;;;13.60;7.53;;;563.40;1612.80;;;;;;5096672;28;20031;-73
2021/08/22 02:46:05;;;;;;;12.27;7.07;;;563.60;1638.40;;;;;;5096462;28;20028;-73
2021/08/22 02:48:31;;;;;;;15.73;8.90;;;563.50;1638.40;;;;;;5096319;28;20028;-72
2021/08/22 02:50:57;;;;;;;17.70;9.15;;;563.60;1638.40;;;;;;5096302;28;20020;-73
2021/08/22 02:53:23;;;;;;;17.77;8.52;;;563.60;1638.40;;;;;;5096152;28;20373;-73
2021/08/22 02:55:49;;;;;;;17.05;8.25;;;563.50;1638.40;;;;;;5096079;28;20091;-72
2021/08/22 02:58:15;;;;;;;18.75;9.02;;;563.50;1638.40;;;;;;5095970;28;20032;-73
2021/08/22 03:00:40;;;;;;;21.10;8.63;;;563.60;1638.40;;;;;;5096246;28;20059;-74
2021/08/22 03:03:06;;;;;;;15.48;8.88;;;563.60;1638.40;;;;;;5095941;28;20073;-73
2021/08/22 03:05:32;;;;;;;20.42;8.55;;;563.50;1638.40;;;;;;5096471;28;20173;-73
2021/08/22 03:07:58;;;;;;;12.35;7.93;;;563.50;1638.40;;;;;;5095705;28;20028;-72
2021/08/22 03:10:24;;;;;;;16.23;8.68;;;563.40;1664.00;;;;;;5095306;28;20487;-72
2021/08/22 03:12:50;;;;;;;14.52;8.70;;;563.30;1664.00;;;;;;5095884;28;20024;-74
2021/08/22 03:15:16;;;;;;;17.98;7.68;;;563.20;1664.00;;;;;;5095666;28;20074;-72
2021/08/22 03:17:42;;;;;;;14.07;8.02;;;563.20;1664.00;;;;;;5095743;28;20020;-73
2021/08/22 03:20:08;;;;;;;19.35;7.95;;;563.30;1638.40;;;;;;5095727;28;20020;-73
2021/08/22 03:22:34;;;;;;;14.23;7.68;;;563.30;1638.40;;;;;;5095800;28;20365;-75
2021/08/22 03:25:01;;;;;;;13.68;7.00;;;563.30;1638.40;;;;;;5095565;28;20028;-74
2021/08/22 03:27:27;;;;;;;13.88;7.50;;;563.20;1638.40;;;;;;5095441;28;20028;-74
2021/08/22 03:29:53;;;;;;;17.73;6.80;;;563.20;1638.40;;;;;;5094053;28;20036;-74
2021/08/22 03:32:19;;;;;;;14.20;6.93;;;563.20;1638.40;;;;;;5095650;28;20016;-73
2021/08/22 03:34:45;;;;;;;13.23;6.90;;;563.20;1612.80;;;;;;5095373;28;20020;-73
2021/08/22 03:37:10;;;;;;;18.80;8.55;;;538.50;1612.80;;;;;;5095224;28;20127;-73
2021/08/22 03:39:36;;;;;;;14.52;7.65;;;538.50;1587.20;;;;;;5095272;28;20376;-72
2021/08/22 03:42:02;;;;;;;13.68;7.10;;;538.50;1587.20;;;;;;5094057;28;20119;-72
2021/08/22 03:44:28;;;;;;;15.43;7.70;;;538.40;1612.80;;;;;;5095302;28;20024;-72
2021/08/22 03:46:54;;;;;;;21.58;7.75;;;538.40;1587.20;;;;;;5095421;28;20415;-73
2021/08/22 03:49:20;;;;;;;11.77;7.30;;;538.40;1587.20;;;;;;5093899;28;20220;-72
2021/08/22 03:51:46;;;;;;;19.88;7.78;;;538.40;1587.20;;;;;;5095124;28;20427;-73
2021/08/22 03:54:12;;;;;;;13.52;7.35;;;538.40;1587.20;;;;;;5094934;28;20024;-73
2021/08/22 03:56:38;;;;;;;12.32;6.55;;;538.20;1612.80;;;;;;5093598;28;20426;-72
2021/08/22 03:59:07;;;;;;;28.70;7.03;;;538.30;1612.80;;;;;;5094851;28;20028;-73
2021/08/22 04:01:36;;;;;;;14.25;7.45;;;538.30;1612.80;;;;;;5094926;28;20016;-75
2021/08/22 04:04:04;;;;;;;16.30;7.28;;;538.30;1587.20;;;;;;5094742;28;20385;-74
2021/08/22 04:06:30;;;;;;;19.95;7.50;;;538.30;1587.20;;;;;;5095010;28;20032;-74
2021/08/22 04:08:58;;;;;;;13.55;6.85;;;538.30;1587.20;;;;;;5093288;28;20533;-75
2021/08/22 04:11:24;;;;;;;11.95;6.63;;;538.30;1587.20;;;;;;5094727;28;20456;-75
2021/08/22 04:13:50;;;;;;;15.32;6.30;;;538.30;1587.20;;;;;;5093132;28;20028;-73
2021/08/22 04:16:16;;;;;;;25.35;7.30;;;538.30;1587.20;;;;;;5094698;28;20480;-74
2021/08/22 04:18:42;;;;;;;14.18;7.72;;;538.30;1587.20;;;;;;5093196;28;20024;-75
2021/08/22 04:21:08;;;;;;;17.88;6.88;;;538.30;1587.20;;;;;;5093408;28;20021;-73
2021/08/22 04:23:34;;;;;;;17.98;7.55;;;538.40;1587.20;;;;;;5094391;28;20040;-74
2021/08/22 04:26:00;;;;;;;11.63;7.32;;;538.40;1587.20;;;;;;5093012;28;20063;-74
2021/08/22 04:28:27;;;;;;;23.48;7.50;;;538.40;1587.20;;;;;;5094166;28;20374;-73
2021/08/22 04:30:52;;;;;;;17.92;8.05;;;538.40;1587.20;;;;;;5094549;28;20024;-74
2021/08/22 04:33:18;;;;;;;15.55;7.32;;;538.40;1587.20;;;;;;5094203;28;20023;-74
2021/08/22 04:35:44;;;;;;;16.95;7.70;;;538.40;1587.20;;;;;;5092885;28;20503;-74
2021/08/22 04:38:10;;;;;;;19.27;7.30;;;538.40;1587.20;;;;;;5094102;28;20028;-74
2021/08/22 04:40:39;;;;;;;12.23;7.70;;;538.50;1561.60;;;;;;5094328;28;20419;-74
2021/08/22 04:43:05;;;;;;;18.83;8.10;;;538.50;1561.60;;;;;;5094092;28;20184;-73
2021/08/22 04:45:32;;;;;;;11.73;6.82;;;538.50;1561.60;;;;;;5094064;28;20055;-72
2021/08/22 04:47:58;;;;;;;13.98;7.32;;;563.20;1587.20;;;;;;5093952;28;20051;-74
2021/08/22 04:50:24;;;;;;;13.68;7.63;;;563.20;1587.20;;;;;;5093984;28;20495;-74
2021/08/22 04:52:50;;;;;;;22.10;7.90;;;563.20;1587.20;;;;;;5093868;28;20028;-74
2021/08/22 04:55:16;;;;;;;16.27;7.68;;;563.20;1587.20;;;;;;5094202;28;20538;-73
2021/08/22 04:57:42;;;;;;;14.07;7.93;;;563.20;1587.20;;;;;;5093764;28;20069;-73
2021/08/22 05:00:08;;;;;;;13.90;7.82;;;563.20;1587.20;;;;;;5092441;28;20028;-73
2021/08/22 05:02:34;;;;;;;22.40;8.02;;;563.20;1587.20;;;;;;5092537;28;20089;-73
2021/08/22 05:05:00;;;;;;;12.85;8.05;;;563.20;1587.20;;;;;;5092523;28;20024;-74
2021/08/22 05:07:26;;;;;;;22.40;8.20;;;563.20;1587.20;;;;;;5093715;28;20024;-73
2021/08/22 05:09:52;;;;;;;16.65;8.48;;;563.20;1587.20;;;;;;5092433;28;20028;-73
2021/08/22 05:12:18;;;;;;;16.58;8.88;;;563.20;1587.20;;;;;;5093757;28;20073;-73
2021/08/22 05:14:44;;;;;;;13.38;7.57;;;563.20;1587.20;;;;;;5092280;28;20047;-73
2021/08/22 05:17:11;;;;;;;13.98;8.43;;;563.20;1587.20;;;;;;5093613;28;20430;-73
2021/08/22 05:19:37;;;;;;;16.85;8.75;;;563.30;1561.60;;;;;;5093664;28;20024;-73
2021/08/22 05:22:04;;;;;;;13.90;8.38;;;563.30;1587.20;;;;;;5093878;28;20032;-72
2021/08/22 05:24:30;;;;;;;15.80;8.70;;;563.30;1587.20;;;;;;5093594;28;20020;-72
2021/08/22 05:26:56;;;;;;;18.60;7.70;;;563.30;1587.20;;;;;;5093779;28;20016;-73
2021/08/22 05:29:22;;;;;;;19.70;8.13;;;563.40;1587.20;;;;;;5093455;28;20039;-73
2021/08/22 05:31:48;;;;;;;22.20;9.48;;;563.40;1587.20;;;;;;5093141;28;20491;-73
2021/08/22 05:34:14;;;;;;;16.52;9.88;;;563.50;1587.20;;;;;;5093401;28;20030;-74
2021/08/22 05:36:42;;;;;;;17.10;9.40;;;563.50;1587.20;;;;;;5093431;28;20051;-74
2021/08/22 05:39:08;;;;;;;26.33;10.55;;;563.50;1587.20;;;;;;5093706;28;20486;-73
2021/08/22 05:41:34;;;;;;;25.92;10.50;;;563.50;1587.20;;;;;;5093450;28;20024;-74
2021/08/22 05:44:00;;;;;;;18.00;8.73;;;563.50;1587.20;;;;;;5092117;28;20026;-75
2021/08/22 05:46:27;;;;;;;20.27;9.57;;;563.60;1587.20;;;;;;5092078;28;20020;-74
2021/08/22 05:48:53;;;;;;;20.75;9.95;;;563.60;1587.20;;;;;;5093562;28;20056;-74
2021/08/22 05:51:20;;;;;;;19.73;10.10;;;563.70;1587.20;;;;;;5093378;28;20062;-75
2021/08/22 05:53:48;;;;;;;18.63;9.55;;;563.70;1612.80;;;;;;5093339;28;20031;-74
2021/08/22 05:56:15;;;;;;;15.52;9.68;;;563.70;1587.20;;;;;;5093276;28;20483;-74
2021/08/22 05:58:41;;;;;;;18.00;9.88;;;563.80;1587.20;;;;;;5093320;28;20028;-74
2021/08/22 06:01:07;;;;;;;15.90;8.95;;;563.90;1587.20;;;;;;5092875;28;20020;-74
2021/08/22 06:03:32;;;;;;;17.52;9.95;;;563.90;1587.20;;;;;;5092699;28;20371;-75
2021/08/22 06:05:59;;;;;;;19.42;9.13;;;563.90;1587.20;;;;;;5091235;28;20073;-74
2021/08/22 06:08:25;;;;;;;25.10;12.32;;;564.00;1587.20;;;;;;5092670;28;20020;-74
2021/08/22 06:10:50;;;;;;;26.00;14.93;;;564.00;1561.60;;;;;;5092589;28;20085;-75
2021/08/22 06:13:16;;;;;;;26.60;14.02;;;564.10;1587.20;;;;;;5092529;28;20027;-75
2021/08/22 06:15:42;;;;;;;25.40;13.82;;;564.10;1561.60;;;;;;5092410;28;20496;-74
2021/08/22 06:18:08;;;;;;;24.33;12.98;;;588.80;1561.60;;;;;;5090968;28;20495;-73
2021/08/22 06:20:34;;;;;;;23.45;12.15;;;588.80;1587.20;;;;;;5092239;28;20040;-73
2021/08/22 06:23:00;;;;;;;21.48;11.95;;;588.90;1587.20;;;;;;5091260;28;20477;-73
2021/08/22 06:25:25;;;;;;;25.60;11.75;;;588.90;1561.60;;;;;;5091626;28;20043;-73
2021/08/22 06:27:51;;;;;;;33.25;12.30;;;589.00;1561.60;;;;;;5091546;28;20012;-73
2021/08/22 06:30:17;;;;;;;19.80;10.82;;;589.10;1561.60;;;;;;5091454;28;20485;-72
2021/08/22 06:32:43;;;;;;;103.75;16.20;;;589.40;1536.00;;;;;;5091409;28;20013;-73
2021/08/22 06:35:09;;;;;;;56.90;11.82;;;614.60;1484.80;;;;;;5091535;28;20375;-74
2021/08/22 06:37:36;;;;;;;20.25;8.73;;;640.00;1433.60;;;;;;5091520;28;20012;-71
2021/08/22 06:40:03;;;;;;;55.75;10.00;;;640.90;1356.80;;;;;;5091280;28;20020;-73
2021/08/22 06:42:29;;;;;;;48.83;9.68;;;666.10;1356.80;;;;;;5091739;28;20373;-73
2021/08/22 06:44:55;;;;;;;18.98;8.10;;;666.50;1331.20;;;;;;5093135;28;20020;-72
2021/08/22 06:47:21;;;;;;;19.05;8.88;;;691.20;1356.80;;;;;;5094764;28;20439;-78
2021/08/22 06:49:46;;;;;;;21.63;8.60;;;691.20;1331.20;;;;;;5098346;28;20024;-75
2021/08/22 06:52:13;;;;;;;20.55;8.98;;;666.30;1356.80;;;;;;5096385;28;20034;-76
2021/08/22 06:54:41;;;;;;;19.20;7.93;;;666.10;1356.80;;;;;;5097052;28;20026;-73
2021/08/22 06:57:08;;;;;;;14.38;6.80;;;665.80;1382.40;;;;;;5093706;28;20012;-75
2021/08/22 06:59:34;;;;;;;12.45;6.45;;;665.80;1356.80;;;;;;5106792;28;20030;-73
2021/08/22 07:02:00;;;;;;;11.68;6.32;;;665.80;1356.80;;;;;;5101547;28;20024;-73
2021/08/22 07:04:26;;;;;;;13.93;6.50;;;665.70;1382.40;;;;;;5112589;28;20051;-73
2021/08/22 07:06:52;;;;;;;11.40;5.90;;;665.70;1356.80;;;;;;5101007;28;20047;-73
2021/08/22 07:09:18;;;;;;;12.43;5.82;;;665.60;1382.40;;;;;;5107348;28;20457;-72
2021/08/22 07:11:44;;;;;;;35.75;5.95;;;665.60;1382.40;;;;;;5108241;28;20023;-72
2021/08/22 07:14:11;;;;;;;19.88;5.20;;;665.60;1382.40;;;;;;5115915;28;20126;-73
2021/08/22 07:16:38;;;;;;;188.10;16.30;;;665.60;1408.00;;;;;;5099212;28;20023;-74
2021/08/22 07:19:04;;;;;;;28.60;6.38;;;665.60;1382.40;;;;;;5108777;28;20030;-74
2021/08/22 07:21:30;;;;;;;45.15;6.80;;;665.60;1408.00;;;;;;5095631;28;20038;-73
2021/08/22 07:23:56;;;;;;;7.68;3.90;;;665.60;1408.00;;;;;;5095842;28;20024;-73
2021/08/22 07:26:22;;;;;;;9.52;4.47;;;665.70;1356.80;;;;;;5094271;28;20024;-74
2021/08/22 07:28:48;;;;;;;23.40;6.20;;;665.70;1331.20;;;;;;5095414;28;20032;-73
2021/08/22 07:31:15;;;;;;;20.45;4.95;;;665.70;1356.80;;;;;;5095424;28;20406;-74
2021/08/22 07:33:41;;;;;;;18.40;5.82;;;665.80;1356.80;;;;;;5095392;28;20485;-73
2021/08/22 07:36:07;;;;;;;17.85;5.30;;;665.80;1382.40;;;;;;5095309;28;20024;-76
2021/08/22 07:38:33;;;;;;;17.60;5.25;;;665.80;1382.40;;;;;;5095273;28;20020;-73
2021/08/22 07:40:59;;;;;;;12.50;4.93;;;665.90;1356.80;;;;;;5095546;28;20020;-72
2021/08/22 07:43:25;;;;;;;10.23;4.55;;;666.00;1331.20;;;;;;5095250;28;20481;-73
2021/08/22 07:45:51;;;;;;;18.85;4.45;;;666.10;1331.20;;;;;;5095201;28;20035;-77
2021/08/22 07:48:17;;;;;;;19.13;5.70;;;666.10;1305.60;;;;;;5094950;28;20020;-80
2021/08/22 07:50:43;;;;;;;8.85;4.03;;;666.10;1382.40;;;;;;5098044;28;20020;-77
2021/08/22 07:53:09;;;;;;;24.42;5.65;;;666.20;1305.60;;;;;;5093978;28;20091;-73
2021/08/22 07:55:35;;;;;;;15.90;5.25;;;666.10;1382.40;;;;;;5094331;28;20024;-72
2021/08/22 07:58:01;;;;;;;12.52;4.50;;;666.30;1356.80;;;;;;5094484;28;20024;-73
2021/08/22 08:00:27;;;;;;;22.48;5.55;;;666.30;1305.60;;;;;;5094321;28;20081;-72
2021/08/22 08:02:53;;;;;;;9.00;4.75;;;666.30;1331.20;;;;;;5094691;28;20423;-74
2021/08/22 08:05:19;;;;;;;8.90;4.00;;;666.30;1305.60;;;;;;5094151;28;20054;-73
2021/08/22 08:07:45;;;;;;;16.83;4.13;;;666.40;1280.00;;;;;;5093759;28;20024;-73
2021/08/22 08:10:11;;;;;;;9.95;4.35;;;666.40;1305.60;;;;;;5092317;28;20404;-73
2021/08/22 08:12:37;;;;;;;14.82;5.35;;;666.40;1280.00;;;;;;5094232;28;20086;-74
2021/08/22 08:15:04;;;;;;;12.45;4.82;;;666.40;1331.20;;;;;;5094400;28;20439;-72
2021/08/22 08:17:30;;;;;;;17.13;4.40;;;666.40;1331.20;;;;;;5094733;28;20074;-74
2021/08/22 08:19:55;;;;;;;13.18;4.60;;;691.20;1331.20;;;;;;5094050;28;20024;-74
2021/08/22 08:22:23;;;;;;;17.75;5.18;;;691.20;1356.80;;;;;;5094085;28;20098;-72
2021/08/22 08:24:49;;;;;;;15.38;4.72;;;691.20;1331.20;;;;;;5094091;28;20024;-72
2021/08/22 08:27:15;;;;;;;10.98;3.63;;;691.20;1356.80;;;;;;5094044;28;20465;-72
2021/08/22 08:29:40;;;;;;;9.95;4.03;;;691.20;1280.00;;;;;;5094314;28;20043;-72
2021/08/22 08:32:07;;;;;;;7.78;4.15;;;691.20;1331.20;;;;;;5094510;28;20020;-76
2021/08/22 08:34:33;;;;;;;11.98;3.83;;;691.20;1280.00;;;;;;5094423;28;20376;-74
2021/08/22 08:37:02;;;;;;;12.10;4.30;;;691.30;1305.60;;;;;;5093062;28;20020;-73
2021/08/22 08:39:27;;;;;;;7.13;3.78;;;691.30;1331.20;;;;;;5094659;28;20096;-76
2021/08/22 08:42:09;;;;;;;9.15;3.92;;;691.30;1280.00;;;;;;5095973;28;20032;-75
2021/08/22 08:44:36;;;;;;;12.40;4.55;;;691.40;1280.00;;;;;;5094836;28;20060;-75
2021/08/22 08:47:04;;;;;;;13.40;4.90;;;691.40;1305.60;;;;;;5097019;28;20023;-76
2021/08/22 08:49:46;;;;;;;13.20;4.65;;;691.40;1280.00;;;;;;5093500;28;20407;-76
2021/08/22 08:52:20;;;;;;;15.23;4.68;;;691.40;1305.60;;;;;;5094626;28;20023;-76
2021/08/22 08:54:58;;;;;;;12.82;4.57;;;691.40;1331.20;;;;;;5095860;28;20380;-74
2021/08/22 08:57:23;;;;;;;11.95;3.80;;;691.40;1331.20;;;;;;5107822;28;20379;-74
2021/08/22 08:59:49;;;;;;;4.85;3.28;;;691.50;1280.00;;;;;;5097167;28;20468;-75
2021/08/22 09:02:15;;;;;;;4.75;3.25;;;691.50;1254.40;;;;;;5109708;28;20020;-75
2021/08/22 09:04:58;;;;;;;6.28;3.53;;;691.50;1177.60;;;;;;5098716;28;20468;-75
2021/08/22 09:07:54;;;;;;;8.50;3.55;;;691.60;1203.20;;;;;;5094080;28;20032;-75
2021/08/22 09:10:38;;;;;;;5.18;3.20;;;691.60;1228.80;;;;;;5110463;28;20127;-74
2021/08/22 09:13:53;;;;;;;5.82;3.28;;;691.60;1177.60;;;;;;5101833;28;20055;-73
2021/08/22 09:16:51;;;;;;;5.13;3.10;;;691.70;1254.40;;;;;;5095762;28;20028;-73
2021/08/22 09:19:54;;;;;;;6.72;3.33;;;691.70;1203.20;;;;;;5101260;28;20055;-76
2021/08/22 09:22:52;;;;;;;3.60;2.53;;;691.70;1203.20;;;;;;5110231;28;20020;-75
2021/08/22 09:25:36;;;;;;;23.88;4.28;;;691.70;1177.60;;;;;;5104603;28;20510;-76
2021/08/22 09:28:26;;;;;;;10.18;3.10;;;691.70;1228.80;;;;;;5095536;28;20028;-75
2021/08/22 09:31:29;;;;;;;8.00;3.40;;;691.70;1177.60;;;;;;5106010;28;20028;-74
2021/08/22 09:34:32;;;;;;;9.20;3.75;;;691.80;1203.20;;;;;;5106068;28;20031;-75
2021/08/22 09:37:29;;;;;;;9.10;3.50;;;691.80;1254.40;;;;;;5088879;28;20027;-74
2021/08/22 09:40:32;;;;;;;8.18;3.60;;;691.80;1203.20;;;;;;5097055;28;20043;-74
2021/08/22 09:43:36;;;;;;;3.35;2.90;;;691.80;1228.80;;;;;;5088946;28;20016;-76
2021/08/22 09:46:39;;;;;;;5.20;3.15;;;691.90;1100.80;;;;;;5096703;28;20056;-74
2021/08/22 09:49:27;;;;;;;4.50;2.95;;;691.90;1152.00;;;;;;5104049;28;20392;-74
2021/08/22 09:52:35;;;;;;;9.52;3.10;;;692.00;1126.40;;;;;;5093891;28;20016;-74
2021/08/22 09:55:22;;;;;;;3.85;2.58;;;692.10;1126.40;;;;;;5091746;28;20028;-75
2021/08/22 09:58:15;;;;;;;5.53;2.85;;;692.10;1126.40;;;;;;5091436;28;20020;-74
2021/08/22 10:01:00;;;;;;;6.15;3.55;;;716.80;1152.00;;;;;;5091861;28;20032;-75
2021/08/22 10:03:38;;;;;;;6.53;3.70;;;716.80;1152.00;;;;;;5092417;28;20024;-75
2021/08/22 10:06:30;;;;;;;7.43;3.08;;;716.80;1152.00;;;;;;5090052;28;20528;-75
2021/08/22 10:09:19;;;;;;;9.13;3.97;;;716.90;1203.20;;;;;;5091672;28;20035;-73
2021/08/22 10:12:01;;;;;;;15.27;4.13;;;716.90;1177.60;;;;;;5090161;28;20012;-76
2021/08/22 10:14:31;;;;;;;14.88;4.55;;;716.90;1228.80;;;;;;5090194;28;20427;-74
2021/08/22 10:16:57;;;;;;;9.32;3.20;;;716.90;1254.40;;;;;;5092703;28;20012;-73
2021/08/22 10:19:27;;;;;;;4.55;2.97;;;716.90;1126.40;;;;;;5095160;28;20533;-73
2021/08/22 10:22:12;;;;;;;3.78;2.60;;;716.90;1126.40;;;;;;5096246;28;20060;-74
2021/08/22 10:24:38;;;;;;;4.72;3.00;;;717.00;1100.80;;;;;;5095945;28;20020;-75
2021/08/22 10:27:05;;;;;;;5.13;2.85;;;717.00;1126.40;;;;;;5096458;28;20489;-75
2021/08/22 10:29:55;;;;;;;9.88;3.75;;;717.00;1152.00;;;;;;5096249;28;20116;-75
2021/08/22 10:32:21;;;;;;;10.82;4.10;;;717.10;1228.80;;;;;;5082350;28;20040;-75
2021/08/22 10:35:07;;;;;;;5.30;2.90;;;717.20;1177.60;;;;;;5094835;28;20020;-74
2021/08/22 10:37:34;;;;;;;7.20;4.00;;;717.20;1075.20;;;;;;5093695;28;20032;-74
2021/08/22 10:40:23;;;;;;;6.68;3.45;;;717.20;1177.60;;;;;;5095215;28;20016;-74
2021/08/22 10:43:09;;;;;;;4.70;2.85;;;717.20;1100.80;;;;;;5082526;28;20127;-80
2021/08/22 10:45:47;;;;;;;10.93;4.10;;;717.20;1100.80;;;;;;5093371;28;20027;-75
2021/08/22 10:48:16;;;;;;;5.63;3.17;;;717.30;1203.20;;;;;;5095787;28;20455;-75
2021/08/22 10:51:02;;;;;;;7.85;3.03;;;717.30;1152.00;;;;;;5095907;28;20024;-75
2021/08/22 10:53:31;;;;;;;12.93;3.95;;;717.30;1100.80;;;;;;5093820;28;20035;-75
2021/08/22 10:55:59;;;;;;;3.47;2.40;;;717.30;1177.60;;;;;;5092191;28;20024;-75
2021/08/22 10:58:55;;;;;;;7.35;2.78;;;717.30;1049.60;;;;;;5094542;28;20024;-74
2021/08/22 11:01:22;;;;;;;9.23;3.47;;;717.40;1100.80;;;;;;5093882;28;20030;-74
2021/08/22 11:04:14;;;;;;;4.93;2.92;;;717.50;1075.20;;;;;;5095698;28;20465;-74
2021/08/22 11:07:02;;;;;;;3.83;2.80;;;717.60;1049.60;;;;;;5093620;28;20028;-75
2021/08/22 11:09:35;;;;;;;5.85;2.80;;;717.50;1075.20;;;;;;5094625;28;20496;-74
2021/08/22 11:12:01;;;;;;;4.47;2.50;;;717.60;1024.00;;;;;;5093658;28;20012;-73
2021/08/22 11:14:27;;;;;;;7.10;3.08;;;717.60;1024.00;;;;;;5095336;28;20048;-73
2021/08/22 11:16:52;;;;;;;8.50;2.90;;;717.60;1049.60;;;;;;5095805;28;20495;-74
2021/08/22 11:19:22;;;;;;;8.98;3.10;;;717.60;1075.20;;;;;;5095927;28;20097;-73
2021/08/22 11:21:49;;;;;;;3.53;2.53;;;717.70;1100.80;;;;;;5094534;28;20027;-75
2021/08/22 11:24:16;;;;;;;7.72;3.33;;;717.70;1024.00;;;;;;5094391;28;20032;-73
2021/08/22 11:26:42;;;;;;;5.65;3.20;;;717.70;1100.80;;;;;;5095708;28;20031;-73
2021/08/22 11:29:08;;;;;;;7.45;3.30;;;742.40;1075.20;;;;;;5095605;28;20472;-73
2021/08/22 11:31:35;;;;;;;6.15;3.05;;;742.40;1075.20;;;;;;5093406;28;20099;-73
2021/08/22 11:34:12;;;;;;;9.32;3.50;;;742.40;1049.60;;;;;;5095425;28;20370;-73
2021/08/22 11:36:39;;;;;;;8.73;3.30;;;742.50;1049.60;;;;;;5094330;28;20078;-73
2021/08/22 11:39:13;;;;;;;7.03;3.10;;;742.50;1100.80;;;;;;5094422;28;20508;-74
2021/08/22 11:41:42;;;;;;;5.68;3.13;;;742.50;1075.20;;;;;;5094265;28;20024;-74
2021/08/22 11:44:08;;;;;;;3.50;2.40;;;742.50;1049.60;;;;;;5095471;28;20020;-82
2021/08/22 11:46:34;;;;;;;3.15;2.40;;;717.70;998.40;;;;;;5094089;28;20392;-74
2021/08/22 11:49:02;;;;;;;6.63;3.17;;;742.50;998.40;;;;;;5095192;28;20032;-73
2021/08/22 11:51:29;;;;;;;6.85;3.35;;;742.50;1049.60;;;;;;5093861;28;20020;-74
2021/08/22 11:53:55;;;;;;;5.53;2.60;;;742.50;1100.80;;;;;;5093934;28;20035;-74
2021/08/22 11:56:23;;;;;;;3.30;2.53;;;742.50;1024.00;;;;;;5095032;28;20028;-77
2021/08/22 11:58:49;;;;;;;9.77;3.53;;;742.60;998.40;;;;;;5093383;28;20480;-73
2021/08/22 12:01:20;;;;;;;6.03;2.97;;;742.60;1100.80;;;;;;5094987;28;20056;-74
2021/08/22 12:04:00;;;;;;;11.55;2.83;;;742.60;1100.80;;;;;;5093018;28;20076;-74
2021/08/22 12:06:30;;;;;;;4.32;2.88;;;742.60;1075.20;;;;;;5090542;28;20020;-74
2021/08/22 12:08:56;;;;;;;4.57;3.13;;;742.60;1049.60;;;;;;5094048;28;20085;-75
2021/08/22 12:11:23;;;;;;;5.38;2.70;;;742.60;998.40;;;;;;5093797;28;20015;-75
2021/08/22 12:13:51;;;;;;;3.05;2.42;;;742.60;998.40;;;;;;5093651;28;20099;-75
2021/08/22 12:16:32;;;;;;;5.38;3.03;;;742.60;972.80;;;;;;5093619;28;20025;-74
2021/08/22 12:19:19;;;;;;;5.57;3.08;;;742.70;1049.60;;;;;;5094311;28;20024;-74
2021/08/22 12:21:46;;;;;;;5.07;2.80;;;742.60;1049.60;;;;;;5094333;28;20028;-74
2021/08/22 12:24:23;;;;;;;7.75;2.72;;;742.60;1049.60;;;;;;5093199;28;20507;-72
2021/08/22 12:26:54;;;;;;;5.07;2.80;;;742.60;1075.20;;;;;;5094436;28;20042;-73